createdAt,value
2023-04-09T00:00:12.668Z,57.41
2023-04-09T00:01:14.622Z,57.15
2023-04-09T00:02:16.197Z,57.35
2023-04-09T00:03:17.886Z,57.29
2023-04-09T00:04:19.452Z,57.32
2023-04-09T00:05:21.946Z,57.30
2023-04-09T00:06:23.513Z,57.30
2023-04-09T00:07:25.059Z,57.68
2023-04-09T00:08:26.549Z,57.31
2023-04-09T00:09:28.061Z,57.37
2023-04-09T00:10:29.631Z,57.77
2023-04-09T00:11:31.722Z,57.31
2023-04-09T00:12:33.206Z,57.86
2023-04-09T00:13:39.135Z,57.93
2023-04-09T00:14:41.304Z,57.87
2023-04-09T00:15:42.809Z,57.93
2023-04-09T00:16:44.995Z,57.97
2023-04-09T00:17:46.663Z,57.75
2023-04-09T00:18:48.242Z,58.09
2023-04-09T00:19:49.767Z,57.92
2023-04-09T00:20:51.377Z,57.75
2023-04-09T00:21:53.357Z,57.72
2023-04-09T00:22:56.453Z,57.55
2023-04-09T00:23:58.055Z,57.89
2023-04-09T00:24:59.559Z,57.85
2023-04-09T00:26:01.366Z,57.60
2023-04-09T00:27:02.900Z,58.27
2023-04-09T00:28:04.483Z,58.41
2023-04-09T00:29:06.212Z,58.24
2023-04-09T00:30:08.756Z,57.74
2023-04-09T00:31:10.978Z,57.75
2023-04-09T00:32:12.557Z,58.10
2023-04-09T00:33:14.084Z,58.16
2023-04-09T00:34:15.986Z,58.30
2023-04-09T00:35:17.585Z,57.92
2023-04-09T00:36:19.140Z,57.75
2023-04-09T00:37:21.010Z,58.21
2023-04-09T00:38:22.557Z,58.44
2023-04-09T00:39:24.078Z,58.35
2023-04-09T00:40:26.063Z,58.22
2023-04-09T00:41:27.609Z,58.31
2023-04-09T00:42:35.948Z,58.55
2023-04-09T00:43:37.474Z,58.02
2023-04-09T00:44:39.089Z,57.86
2023-04-09T00:45:40.707Z,57.68
2023-04-09T00:46:42.233Z,57.47
2023-04-09T00:47:46.031Z,57.92
2023-04-09T00:48:47.614Z,57.68
2023-04-09T00:49:49.176Z,57.37
2023-04-09T00:50:50.970Z,57.48
2023-04-09T00:51:52.756Z,57.78
2023-04-09T00:52:54.307Z,57.92
2023-04-09T00:53:55.843Z,57.67
2023-04-09T00:54:57.482Z,57.61
2023-04-09T00:55:59.067Z,57.53
2023-04-09T00:57:00.689Z,57.74
2023-04-09T00:58:02.614Z,57.74
2023-04-09T00:59:04.822Z,57.94
2023-04-09T01:00:07.816Z,57.70
2023-04-09T01:01:09.331Z,57.11
2023-04-09T01:02:11.212Z,57.81
2023-04-09T01:03:12.958Z,58.03
2023-04-09T01:04:15.046Z,58.03
2023-04-09T01:05:16.702Z,58.48
2023-04-09T01:06:22.046Z,58.89
2023-04-09T01:07:54.665Z,58.36
2023-04-09T01:08:59.465Z,58.01
2023-04-09T01:10:13.182Z,58.46
2023-04-09T01:11:24.186Z,58.67
2023-04-09T01:12:34.105Z,58.72
2023-04-09T01:13:42.871Z,58.94
2023-04-09T01:15:13.842Z,58.30
2023-04-09T01:16:16.392Z,57.82
2023-04-09T01:17:21.652Z,57.96
2023-04-09T01:18:44.317Z,58.38
2023-04-09T01:20:00.356Z,57.96
2023-04-09T01:21:13.803Z,58.45
2023-04-09T01:22:39.842Z,58.03
2023-04-09T01:23:58.335Z,57.66
2023-04-09T01:25:21.648Z,57.76
2023-04-09T01:26:31.825Z,57.55
2023-04-09T01:28:02.984Z,57.94
2023-04-09T01:29:04.486Z,57.65
2023-04-09T01:30:06.479Z,57.85
2023-04-09T01:31:13.516Z,57.92
2023-04-09T01:32:16.807Z,57.99
2023-04-09T01:33:19.889Z,58.04
2023-04-09T01:34:21.414Z,57.69
2023-04-09T01:35:22.931Z,58.18
2023-04-09T01:36:24.531Z,58.36
2023-04-09T01:37:26.537Z,57.96
2023-04-09T01:38:28.284Z,57.80
2023-04-09T01:39:30.006Z,58.11
2023-04-09T01:40:31.493Z,57.81
2023-04-09T01:41:33.439Z,58.08
2023-04-09T01:42:35.620Z,57.89
2023-04-09T01:43:37.129Z,57.81
2023-04-09T01:44:39.639Z,57.98
2023-04-09T01:45:41.205Z,57.83
2023-04-09T01:46:42.812Z,57.89
2023-04-09T01:47:44.393Z,58.11
2023-04-09T01:48:46.453Z,58.00
2023-04-09T01:49:47.961Z,58.69
2023-04-09T01:50:49.583Z,57.89
2023-04-09T01:51:51.102Z,58.39
2023-04-09T01:52:52.622Z,58.06
2023-04-09T01:53:54.104Z,58.20
2023-04-09T01:54:55.628Z,57.78
2023-04-09T01:55:59.563Z,58.18
2023-04-09T01:57:01.224Z,57.97
2023-04-09T01:58:02.779Z,57.93
2023-04-09T01:59:04.307Z,57.95
2023-04-09T02:00:06.981Z,58.30
2023-04-09T02:01:23.741Z,57.88
2023-04-09T02:02:31.089Z,58.03
2023-04-09T02:03:38.504Z,58.13
2023-04-09T02:04:42.050Z,57.73
2023-04-09T02:05:46.653Z,58.31
2023-04-09T02:06:51.929Z,58.16
2023-04-09T02:07:55.934Z,57.99
2023-04-09T02:08:57.893Z,58.17
2023-04-09T02:09:59.736Z,58.34
2023-04-09T02:11:01.844Z,58.76
2023-04-09T02:12:04.517Z,58.41
2023-04-09T02:13:06.855Z,58.29
2023-04-09T02:14:09.000Z,58.65
2023-04-09T02:15:10.810Z,59.47
2023-04-09T02:16:12.451Z,58.65
2023-04-09T02:17:14.450Z,59.33
2023-04-09T02:18:27.317Z,59.85
2023-04-09T02:19:41.470Z,59.29
2023-04-09T02:20:43.031Z,59.13
2023-04-09T02:21:44.560Z,59.39
2023-04-09T02:22:46.600Z,58.83
2023-04-09T02:23:48.661Z,59.65
2023-04-09T02:24:50.188Z,59.03
2023-04-09T02:25:52.608Z,59.76
2023-04-09T02:26:54.105Z,60.11
2023-04-09T02:27:55.702Z,59.37
2023-04-09T02:28:57.251Z,59.76
2023-04-09T02:29:58.771Z,59.25
2023-04-09T02:31:00.820Z,59.73
2023-04-09T02:32:02.446Z,59.20
2023-04-09T02:33:03.990Z,60.29
2023-04-09T02:34:05.483Z,59.93
2023-04-09T02:35:07.820Z,60.15
2023-04-09T02:36:13.528Z,59.42
2023-04-09T02:37:15.441Z,59.45
2023-04-09T02:38:17.011Z,59.69
2023-04-09T02:39:18.520Z,58.85
2023-04-09T02:40:20.200Z,59.28
2023-04-09T02:41:21.693Z,58.62
2023-04-09T02:42:23.539Z,59.15
2023-04-09T02:43:25.070Z,59.10
2023-04-09T02:44:26.580Z,58.79
2023-04-09T02:45:28.093Z,58.53
2023-04-09T02:46:30.157Z,58.92
2023-04-09T02:47:31.698Z,58.78
2023-04-09T02:48:33.199Z,58.69
2023-04-09T02:49:35.226Z,58.26
2023-04-09T02:50:36.781Z,58.18
2023-04-09T02:51:38.313Z,58.60
2023-04-09T02:52:39.801Z,58.34
2023-04-09T02:53:41.748Z,58.12
2023-04-09T02:54:43.285Z,58.10
2023-04-09T02:55:44.812Z,57.99
2023-04-09T02:56:46.427Z,58.50
2023-04-09T02:57:47.968Z,58.54
2023-04-09T02:58:54.040Z,58.45
2023-04-09T02:59:55.869Z,58.50
2023-04-09T03:00:57.409Z,58.09
2023-04-09T03:01:59.088Z,58.58
2023-04-09T03:03:00.802Z,58.23
2023-04-09T03:04:02.666Z,58.29
2023-04-09T03:05:04.604Z,58.26
2023-04-09T03:06:06.193Z,58.03
2023-04-09T03:07:07.797Z,57.62
2023-04-09T03:08:09.347Z,58.18
2023-04-09T03:09:11.201Z,58.30
2023-04-09T03:10:12.722Z,58.08
2023-04-09T03:11:14.344Z,57.82
2023-04-09T03:12:15.844Z,58.07
2023-04-09T03:13:17.430Z,57.41
2023-04-09T03:14:18.953Z,57.68
2023-04-09T03:15:20.520Z,57.92
2023-04-09T03:16:24.282Z,57.64
2023-04-09T03:17:27.216Z,58.01
2023-04-09T03:18:28.704Z,57.44
2023-04-09T03:19:30.729Z,56.29
2023-04-09T03:20:32.818Z,56.58
2023-04-09T03:21:34.342Z,57.52
2023-04-09T03:22:39.415Z,57.52
2023-04-09T03:23:40.904Z,58.12
2023-04-09T03:24:42.750Z,58.73
2023-04-09T03:25:44.266Z,58.37
2023-04-09T03:26:45.862Z,58.60
2023-04-09T03:27:47.704Z,58.49
2023-04-09T03:28:49.256Z,58.82
2023-04-09T03:29:51.058Z,59.47
2023-04-09T03:30:52.804Z,58.86
2023-04-09T03:31:54.372Z,58.74
2023-04-09T03:32:55.963Z,58.81
2023-04-09T03:33:57.512Z,59.12
2023-04-09T03:34:59.063Z,58.99
2023-04-09T03:36:00.636Z,58.97
2023-04-09T03:37:02.177Z,59.68
2023-04-09T03:38:03.722Z,59.22
2023-04-09T03:39:05.368Z,59.85
2023-04-09T03:40:07.442Z,58.78
2023-04-09T03:41:09.150Z,59.60
2023-04-09T03:42:11.000Z,59.97
2023-04-09T03:43:12.494Z,59.92
2023-04-09T03:44:14.004Z,60.23
2023-04-09T03:45:15.504Z,60.53
2023-04-09T03:46:17.830Z,59.70
2023-04-09T03:47:19.566Z,59.74
2023-04-09T03:48:21.180Z,60.54
2023-04-09T03:49:22.745Z,59.98
2023-04-09T03:50:24.274Z,60.28
2023-04-09T03:51:27.034Z,60.96
2023-04-09T03:52:28.561Z,60.67
2023-04-09T03:53:30.428Z,60.95
2023-04-09T03:54:31.924Z,60.68
2023-04-09T03:55:33.525Z,60.59
2023-04-09T03:56:35.281Z,60.49
2023-04-09T03:57:36.828Z,60.37
2023-04-09T03:58:38.347Z,60.61
2023-04-09T03:59:39.886Z,60.33
2023-04-09T04:00:41.462Z,60.20
2023-04-09T04:01:43.021Z,60.10
2023-04-09T04:02:44.737Z,60.47
2023-04-09T04:03:46.454Z,59.91
2023-04-09T04:04:48.287Z,59.90
2023-04-09T04:05:49.961Z,60.24
2023-04-09T04:06:51.594Z,60.52
2023-04-09T04:07:53.351Z,60.60
2023-04-09T04:08:55.059Z,60.59
2023-04-09T04:09:56.717Z,60.63
2023-04-09T04:11:04.354Z,61.15
2023-04-09T04:12:06.056Z,61.47
2023-04-09T04:13:10.457Z,61.49
2023-04-09T04:14:12.014Z,61.11
2023-04-09T04:15:14.126Z,61.63
2023-04-09T04:16:15.749Z,61.26
2023-04-09T04:17:17.337Z,60.75
2023-04-09T04:18:18.881Z,60.19
2023-04-09T04:19:20.887Z,60.24
2023-04-09T04:20:22.377Z,60.85
2023-04-09T04:21:23.903Z,60.59
2023-04-09T04:22:26.329Z,59.89
2023-04-09T04:23:28.488Z,60.73
2023-04-09T04:24:30.122Z,60.49
2023-04-09T04:25:31.658Z,59.78
2023-04-09T04:26:33.171Z,59.57
2023-04-09T04:27:34.701Z,60.02
2023-04-09T04:28:37.443Z,60.13
2023-04-09T04:29:39.434Z,59.78
2023-04-09T04:30:44.135Z,59.44
2023-04-09T04:31:45.707Z,60.22
2023-04-09T04:32:47.738Z,59.64
2023-04-09T04:33:49.287Z,60.16
2023-04-09T04:34:50.828Z,59.58
2023-04-09T04:35:52.420Z,59.71
2023-04-09T04:36:54.038Z,60.54
2023-04-09T04:37:55.930Z,60.56
2023-04-09T04:38:57.457Z,59.79
2023-04-09T04:40:01.472Z,60.00
2023-04-09T04:41:03.016Z,60.17
2023-04-09T04:42:04.540Z,59.83
2023-04-09T04:43:06.095Z,59.94
2023-04-09T04:44:07.735Z,60.01
2023-04-09T04:45:09.695Z,60.23
2023-04-09T04:46:11.303Z,60.05
2023-04-09T04:47:12.924Z,59.51
2023-04-09T04:48:14.521Z,59.95
2023-04-09T04:49:16.095Z,59.64
2023-04-09T04:50:17.597Z,59.91
2023-04-09T04:51:19.087Z,59.80
2023-04-09T04:52:20.627Z,59.94
2023-04-09T04:53:22.114Z,59.98
2023-04-09T04:54:23.602Z,59.74
2023-04-09T04:55:25.113Z,58.93
2023-04-09T04:56:26.657Z,59.44
2023-04-09T04:57:28.174Z,59.24
2023-04-09T04:58:30.680Z,59.99
2023-04-09T04:59:32.266Z,59.91
2023-04-09T05:00:33.794Z,59.92
2023-04-09T05:01:35.342Z,59.83
2023-04-09T05:02:36.957Z,59.38
2023-04-09T05:03:38.657Z,59.63
2023-04-09T05:04:40.375Z,59.05
2023-04-09T05:05:41.956Z,59.74
2023-04-09T05:06:43.449Z,59.98
2023-04-09T05:07:45.506Z,59.60
2023-04-09T05:08:46.989Z,59.52
2023-04-09T05:09:48.515Z,59.11
2023-04-09T05:10:51.226Z,59.15
2023-04-09T05:11:52.751Z,59.47
2023-04-09T05:12:54.283Z,59.40
2023-04-09T05:13:55.858Z,59.75
2023-04-09T05:14:57.684Z,59.19
2023-04-09T05:15:59.184Z,58.77
2023-04-09T05:17:00.820Z,59.35
2023-04-09T05:18:02.338Z,59.28
2023-04-09T05:19:03.858Z,59.55
2023-04-09T05:20:05.942Z,59.45
2023-04-09T05:21:07.432Z,59.59
2023-04-09T05:22:09.065Z,59.53
2023-04-09T05:23:10.546Z,59.46
2023-04-09T05:24:12.338Z,59.30
2023-04-09T05:25:16.158Z,59.50
2023-04-09T05:26:17.852Z,59.78
2023-04-09T05:27:20.729Z,58.79
2023-04-09T05:28:22.284Z,59.66
2023-04-09T05:29:23.786Z,59.25
2023-04-09T05:30:25.433Z,58.66
2023-04-09T05:31:27.067Z,59.17
2023-04-09T05:32:28.593Z,59.08
2023-04-09T05:33:30.533Z,58.74
2023-04-09T05:34:32.061Z,58.52
2023-04-09T05:35:33.609Z,59.25
2023-04-09T05:36:35.348Z,58.86
2023-04-09T05:37:36.895Z,58.60
2023-04-09T05:38:38.417Z,59.79
2023-04-09T05:39:39.950Z,59.53
2023-04-09T05:40:42.378Z,58.81
2023-04-09T05:41:44.904Z,58.77
2023-04-09T05:42:46.457Z,59.60
2023-04-09T05:43:47.942Z,59.62
2023-04-09T05:44:49.548Z,58.90
2023-04-09T05:45:51.163Z,59.62
2023-04-09T05:46:52.819Z,59.72
2023-04-09T05:47:54.743Z,59.09
2023-04-09T05:48:56.721Z,59.79
2023-04-09T05:49:58.254Z,59.25
2023-04-09T05:51:01.025Z,59.98
2023-04-09T05:52:02.662Z,58.79
2023-04-09T05:53:04.028Z,58.65
2023-04-09T05:54:05.513Z,58.17
2023-04-09T05:55:08.150Z,58.79
2023-04-09T05:56:16.185Z,59.07
2023-04-09T05:57:17.681Z,59.09
2023-04-09T05:58:19.809Z,59.22
2023-04-09T05:59:21.358Z,60.17
2023-04-09T06:00:22.907Z,59.82
2023-04-09T06:01:24.434Z,59.82
2023-04-09T06:02:26.624Z,59.69
2023-04-09T06:03:29.256Z,60.30
2023-04-09T06:04:31.826Z,59.91
2023-04-09T06:05:33.392Z,59.56
2023-04-09T06:06:36.973Z,59.08
2023-04-09T06:07:39.067Z,59.64
2023-04-09T06:08:40.664Z,59.35
2023-04-09T06:09:44.217Z,58.69
2023-04-09T06:10:45.771Z,58.66
2023-04-09T06:11:47.360Z,59.07
2023-04-09T06:12:48.913Z,58.05
2023-04-09T06:13:50.708Z,59.12
2023-04-09T06:14:52.395Z,59.22
2023-04-09T06:15:54.049Z,58.26
2023-04-09T06:16:56.240Z,59.32
2023-04-09T06:17:59.479Z,58.25
2023-04-09T06:19:01.710Z,57.99
2023-04-09T06:20:03.620Z,57.29
2023-04-09T06:21:06.531Z,57.36
2023-04-09T06:22:11.143Z,57.79
2023-04-09T06:23:12.749Z,57.92
2023-04-09T06:24:14.312Z,57.53
2023-04-09T06:25:15.975Z,57.22
2023-04-09T06:26:18.244Z,57.50
2023-04-09T06:27:22.007Z,57.45
2023-04-09T06:28:23.542Z,57.50
2023-04-09T06:29:25.088Z,56.10
2023-04-09T06:30:27.046Z,56.15
2023-04-09T06:31:28.663Z,56.34
2023-04-09T06:32:32.043Z,56.56
2023-04-09T06:33:35.431Z,55.68
2023-04-09T06:34:36.956Z,55.54
2023-04-09T06:35:38.523Z,54.56
2023-04-09T06:36:40.569Z,54.36
2023-04-09T06:37:42.146Z,54.27
2023-04-09T06:38:43.693Z,54.38
2023-04-09T06:39:58.223Z,54.07
2023-04-09T06:41:03.626Z,52.80
2023-04-09T06:42:05.263Z,53.05
2023-04-09T06:43:06.866Z,53.13
2023-04-09T06:44:08.472Z,53.06
2023-04-09T06:45:10.343Z,52.52
2023-04-09T06:46:13.494Z,52.26
2023-04-09T06:47:15.096Z,51.79
2023-04-09T06:48:16.674Z,52.82
2023-04-09T06:49:18.216Z,52.20
2023-04-09T06:50:19.768Z,51.97
2023-04-09T06:51:21.365Z,51.74
2023-04-09T06:52:22.860Z,51.42
2023-04-09T06:53:24.436Z,51.03
2023-04-09T06:54:26.038Z,50.55
2023-04-09T06:55:27.616Z,50.05
2023-04-09T06:56:29.146Z,50.85
2023-04-09T06:57:30.759Z,49.72
2023-04-09T06:58:32.328Z,49.90
2023-04-09T06:59:33.939Z,49.85
2023-04-09T07:00:35.510Z,49.00
2023-04-09T07:01:37.896Z,48.48
2023-04-09T07:02:39.755Z,48.81
2023-04-09T07:03:43.857Z,48.86
2023-04-09T07:04:45.680Z,48.22
2023-04-09T07:05:47.326Z,47.88
2023-04-09T07:06:48.841Z,48.64
2023-04-09T07:07:50.689Z,47.80
2023-04-09T07:08:52.492Z,46.78
2023-04-09T07:09:54.362Z,48.16
2023-04-09T07:10:56.239Z,47.37
2023-04-09T07:11:57.894Z,47.82
2023-04-09T07:12:59.383Z,47.16
2023-04-09T07:14:01.008Z,46.88
2023-04-09T07:15:03.602Z,47.19
2023-04-09T07:16:05.450Z,45.76
2023-04-09T07:17:07.007Z,46.09
2023-04-09T07:18:08.623Z,46.52
2023-04-09T07:19:10.287Z,46.35
2023-04-09T07:20:12.071Z,45.95
2023-04-09T07:21:13.949Z,46.00
2023-04-09T07:22:15.474Z,44.98
2023-04-09T07:23:17.348Z,45.34
2023-04-09T07:24:18.854Z,44.95
2023-04-09T07:25:21.888Z,44.79
2023-04-09T07:26:23.453Z,44.46
2023-04-09T07:27:26.138Z,43.80
2023-04-09T07:28:28.143Z,44.21
2023-04-09T07:29:29.696Z,43.58
2023-04-09T07:30:32.213Z,43.70
2023-04-09T07:31:35.907Z,43.16
2023-04-09T07:32:38.222Z,42.27
2023-04-09T07:33:39.752Z,42.00
2023-04-09T07:34:41.948Z,42.16
2023-04-09T07:35:43.482Z,41.32
2023-04-09T07:36:45.101Z,40.42
2023-04-09T07:37:46.666Z,39.87
2023-04-09T07:38:48.584Z,39.63
2023-04-09T07:39:51.305Z,39.57
2023-04-09T07:40:53.102Z,39.91
2023-04-09T07:41:54.627Z,39.75
2023-04-09T07:42:56.345Z,39.98
2023-04-09T07:43:58.027Z,40.01
2023-04-09T07:44:59.592Z,40.19
2023-04-09T07:46:01.128Z,39.86
2023-04-09T07:47:03.822Z,40.10
2023-04-09T07:48:05.747Z,39.25
2023-04-09T07:49:07.330Z,38.78
2023-04-09T07:50:09.306Z,37.92
2023-04-09T07:51:11.456Z,37.46
2023-04-09T07:52:13.001Z,36.70
2023-04-09T07:53:14.557Z,35.83
2023-04-09T07:54:16.051Z,34.10
2023-04-09T07:55:18.727Z,32.49
2023-04-09T07:56:20.756Z,31.35
2023-04-09T07:57:22.303Z,31.77
2023-04-09T07:58:23.827Z,30.73
2023-04-09T07:59:25.944Z,28.77
2023-04-09T08:00:27.485Z,28.30
2023-04-09T08:01:28.982Z,27.68
2023-04-09T08:02:31.240Z,27.20
2023-04-09T08:03:33.342Z,26.00
2023-04-09T08:04:35.291Z,25.85
2023-04-09T08:05:38.223Z,27.16
2023-04-09T08:06:39.733Z,27.39
2023-04-09T08:07:42.009Z,27.12
2023-04-09T08:08:43.708Z,27.86
2023-04-09T08:09:45.194Z,28.32
2023-04-09T08:10:46.902Z,28.65
2023-04-09T08:11:48.537Z,29.10
2023-04-09T08:12:50.085Z,29.59
2023-04-09T08:13:54.881Z,29.84
2023-04-09T08:14:56.376Z,29.50
2023-04-09T08:16:01.228Z,29.57
2023-04-09T08:17:02.884Z,30.48
2023-04-09T08:18:04.533Z,30.81
2023-04-09T08:19:06.290Z,30.92
2023-04-09T08:20:08.307Z,29.88
2023-04-09T08:21:09.865Z,30.15
2023-04-09T08:22:11.510Z,30.25
2023-04-09T08:23:13.047Z,30.13
2023-04-09T08:24:14.672Z,30.42
2023-04-09T08:25:16.762Z,32.13
2023-04-09T08:26:18.338Z,32.49
2023-04-09T08:27:19.928Z,32.04
2023-04-09T08:28:21.768Z,32.55
2023-04-09T08:29:23.327Z,33.08
2023-04-09T08:30:25.075Z,33.68
2023-04-09T08:31:27.344Z,34.02
2023-04-09T08:32:29.246Z,34.80
2023-04-09T08:33:31.271Z,34.95
2023-04-09T08:34:32.764Z,35.53
2023-04-09T08:35:34.641Z,35.04
2023-04-09T08:36:36.202Z,35.09
2023-04-09T08:37:37.751Z,34.71
2023-04-09T08:38:39.287Z,34.84
2023-04-09T08:39:40.785Z,36.20
2023-04-09T08:40:42.320Z,35.92
2023-04-09T08:41:47.596Z,36.16
2023-04-09T08:42:54.216Z,36.07
2023-04-09T08:43:58.415Z,36.53
2023-04-09T08:45:04.384Z,35.74
2023-04-09T08:46:06.073Z,36.00
2023-04-09T08:47:11.616Z,35.44
2023-04-09T08:48:13.464Z,35.04
2023-04-09T08:49:15.094Z,35.45
2023-04-09T08:50:17.068Z,34.52
2023-04-09T08:51:20.052Z,35.40
2023-04-09T08:52:30.902Z,35.63
2023-04-09T08:53:32.422Z,36.13
2023-04-09T08:54:34.076Z,35.90
2023-04-09T08:55:37.584Z,35.64
2023-04-09T08:56:39.116Z,36.04
2023-04-09T08:57:40.817Z,35.58
2023-04-09T08:58:46.161Z,35.24
2023-04-09T08:59:48.006Z,34.97
2023-04-09T09:00:49.839Z,34.81
2023-04-09T09:02:06.963Z,35.54
2023-04-09T09:03:10.259Z,35.83
2023-04-09T09:04:12.028Z,36.17
2023-04-09T09:05:14.005Z,35.93
2023-04-09T09:06:22.553Z,35.72
2023-04-09T09:07:24.141Z,35.83
2023-04-09T09:08:26.804Z,35.02
2023-04-09T09:09:28.422Z,36.04
2023-04-09T09:10:43.837Z,36.29
2023-04-09T09:11:50.210Z,36.20
2023-04-09T09:12:51.820Z,36.44
2023-04-09T09:14:00.992Z,37.12
2023-04-09T09:15:02.946Z,37.61
2023-04-09T09:16:14.504Z,38.63
2023-04-09T09:17:16.204Z,38.02
2023-04-09T09:18:18.288Z,37.96
2023-04-09T09:19:26.311Z,38.82
2023-04-09T09:20:28.825Z,38.35
2023-04-09T09:21:30.398Z,38.82
2023-04-09T09:22:31.960Z,38.16
2023-04-09T09:23:38.940Z,38.48
2023-04-09T09:24:51.615Z,38.71
2023-04-09T09:25:53.432Z,38.09
2023-04-09T09:26:55.799Z,38.00
2023-04-09T09:28:10.281Z,38.20
2023-04-09T09:29:12.346Z,38.09
2023-04-09T09:30:23.951Z,39.04
2023-04-09T09:31:25.938Z,38.19
2023-04-09T09:32:27.951Z,38.22
2023-04-09T09:33:33.447Z,38.70
2023-04-09T09:34:35.007Z,38.49
2023-04-09T09:35:54.569Z,38.39
2023-04-09T09:36:56.284Z,38.27
2023-04-09T09:38:06.334Z,38.55
2023-04-09T09:39:12.173Z,38.30
2023-04-09T09:40:26.732Z,38.21
2023-04-09T09:41:28.244Z,38.34
2023-04-09T09:42:29.752Z,38.29
2023-04-09T09:43:41.241Z,38.40
2023-04-09T09:44:42.842Z,37.45
2023-04-09T09:45:44.694Z,37.39
2023-04-09T09:46:46.361Z,37.52
2023-04-09T09:47:47.879Z,37.68
2023-04-09T09:48:49.861Z,37.51
2023-04-09T09:49:52.157Z,37.23
2023-04-09T09:50:53.765Z,37.18
2023-04-09T09:51:57.746Z,37.37
2023-04-09T09:53:03.238Z,37.86
2023-04-09T09:54:05.073Z,38.34
2023-04-09T09:55:07.037Z,38.45
2023-04-09T09:56:19.780Z,38.34
2023-04-09T09:57:23.650Z,37.69
2023-04-09T09:58:28.139Z,39.09
2023-04-09T09:59:31.788Z,38.14
2023-04-09T10:00:33.389Z,37.95
2023-04-09T10:01:36.640Z,37.53
2023-04-09T10:02:43.678Z,37.33
2023-04-09T10:03:45.448Z,37.77
2023-04-09T10:04:47.065Z,37.39
2023-04-09T10:05:48.936Z,38.07
2023-04-09T10:06:52.194Z,37.86
2023-04-09T10:07:55.950Z,37.71
2023-04-09T10:08:58.273Z,37.75
2023-04-09T10:10:00.116Z,37.42
2023-04-09T10:11:01.933Z,38.22
2023-04-09T10:12:04.965Z,37.88
2023-04-09T10:13:06.700Z,37.54
2023-04-09T10:14:08.313Z,37.73
2023-04-09T10:15:10.117Z,38.16
2023-04-09T10:16:11.701Z,38.10
2023-04-09T10:17:13.315Z,38.44
2023-04-09T10:18:15.469Z,37.72
2023-04-09T10:19:17.115Z,38.79
2023-04-09T10:20:34.569Z,38.59
2023-04-09T10:21:53.832Z,38.12
2023-04-09T10:22:55.386Z,37.22
2023-04-09T10:23:56.988Z,37.42
2023-04-09T10:24:58.595Z,37.42
2023-04-09T10:26:00.190Z,36.58
2023-04-09T10:27:16.408Z,36.09
2023-04-09T10:28:18.564Z,36.64
2023-04-09T10:29:27.106Z,36.23
2023-04-09T10:30:32.814Z,36.59
2023-04-09T10:31:47.767Z,36.51
2023-04-09T10:32:49.322Z,36.65
2023-04-09T10:33:50.844Z,36.02
2023-04-09T10:34:52.515Z,35.31
2023-04-09T10:35:55.331Z,36.02
2023-04-09T10:36:57.323Z,36.09
2023-04-09T10:37:59.270Z,36.46
2023-04-09T10:39:00.880Z,35.64
2023-04-09T10:40:03.402Z,35.00
2023-04-09T10:41:25.425Z,34.98
2023-04-09T10:42:30.334Z,34.58
2023-04-09T10:43:31.832Z,33.95
2023-04-09T10:44:35.752Z,34.62
2023-04-09T10:45:41.724Z,34.93
2023-04-09T10:46:43.441Z,34.13
2023-04-09T10:47:46.342Z,33.82
2023-04-09T10:48:47.977Z,33.60
2023-04-09T10:49:49.814Z,33.78
2023-04-09T10:50:52.423Z,33.74
2023-04-09T10:52:12.263Z,32.39
2023-04-09T10:53:24.282Z,32.89
2023-04-09T10:54:34.855Z,31.89
2023-04-09T10:55:37.025Z,32.87
2023-04-09T10:56:38.538Z,32.56
2023-04-09T10:57:40.096Z,33.08
2023-04-09T10:58:41.648Z,32.69
2023-04-09T10:59:47.331Z,33.63
2023-04-09T11:00:50.929Z,32.92
2023-04-09T11:01:54.593Z,32.41
2023-04-09T11:03:05.825Z,34.82
2023-04-09T11:04:10.594Z,34.50
2023-04-09T11:05:18.154Z,34.41
2023-04-09T11:06:20.040Z,34.45
2023-04-09T11:07:21.666Z,34.24
2023-04-09T11:08:23.295Z,34.81
2023-04-09T11:09:24.840Z,32.49
2023-04-09T11:10:26.814Z,32.27
2023-04-09T11:11:29.286Z,32.20
2023-04-09T11:12:30.815Z,31.40
2023-04-09T11:13:32.531Z,31.55
2023-04-09T11:14:34.060Z,31.02
2023-04-09T11:15:36.568Z,30.65
2023-04-09T11:16:38.157Z,31.25
2023-04-09T11:17:39.752Z,32.08
2023-04-09T11:18:41.271Z,32.01
2023-04-09T11:19:43.151Z,31.51
2023-04-09T11:20:44.827Z,31.60
2023-04-09T11:21:47.375Z,31.67
2023-04-09T11:22:52.856Z,31.74
2023-04-09T11:23:54.440Z,32.27
2023-04-09T11:24:56.770Z,32.21
2023-04-09T11:25:58.434Z,31.67
2023-04-09T11:27:02.080Z,32.20
2023-04-09T11:28:04.515Z,32.92
2023-04-09T11:29:09.358Z,33.29
2023-04-09T11:30:11.160Z,33.86
2023-04-09T11:31:12.863Z,33.36
2023-04-09T11:32:14.505Z,33.35
2023-04-09T11:33:18.212Z,33.30
2023-04-09T11:34:21.240Z,32.93
2023-04-09T11:35:22.859Z,32.40
2023-04-09T11:36:24.413Z,32.88
2023-04-09T11:37:25.916Z,32.66
2023-04-09T11:38:27.438Z,32.29
2023-04-09T11:39:28.961Z,32.66
2023-04-09T11:40:30.830Z,31.94
2023-04-09T11:41:36.177Z,32.13
2023-04-09T11:42:37.902Z,32.58
2023-04-09T11:43:39.483Z,33.17
2023-04-09T11:44:41.118Z,32.73
2023-04-09T11:45:43.021Z,33.26
2023-04-09T11:46:44.627Z,32.13
2023-04-09T11:47:47.188Z,31.28
2023-04-09T11:48:48.960Z,31.37
2023-04-09T11:49:50.623Z,32.57
2023-04-09T11:50:52.681Z,31.75
2023-04-09T11:51:54.668Z,31.48
2023-04-09T11:52:56.815Z,32.69
2023-04-09T11:54:03.408Z,32.86
2023-04-09T11:55:05.539Z,33.35
2023-04-09T11:56:07.210Z,32.86
2023-04-09T11:57:08.805Z,33.39
2023-04-09T11:58:11.675Z,32.71
2023-04-09T11:59:14.389Z,31.78
2023-04-09T12:00:17.410Z,32.71
2023-04-09T12:01:18.967Z,31.99
2023-04-09T12:02:20.841Z,33.93
2023-04-09T12:03:30.630Z,32.61
2023-04-09T12:04:32.557Z,31.62
2023-04-09T12:05:34.640Z,31.94
2023-04-09T12:06:40.364Z,32.55
2023-04-09T12:07:44.155Z,32.78
2023-04-09T12:08:56.374Z,31.99
2023-04-09T12:09:57.933Z,32.56
2023-04-09T12:11:11.329Z,31.36
2023-04-09T12:12:12.860Z,30.61
2023-04-09T12:13:16.614Z,31.95
2023-04-09T12:14:18.766Z,32.13
2023-04-09T12:15:24.773Z,33.43
2023-04-09T12:16:26.371Z,31.68
2023-04-09T12:17:27.906Z,31.57
2023-04-09T12:18:29.418Z,31.36
2023-04-09T12:19:30.930Z,31.01
2023-04-09T12:20:45.308Z,31.10
2023-04-09T12:21:49.703Z,31.05
2023-04-09T12:22:51.206Z,31.16
2023-04-09T12:23:52.703Z,31.49
2023-04-09T12:24:55.107Z,31.71
2023-04-09T12:25:56.959Z,31.18
2023-04-09T12:26:58.759Z,31.30
2023-04-09T12:28:00.271Z,30.64
2023-04-09T12:29:01.788Z,30.74
2023-04-09T12:30:03.415Z,30.70
2023-04-09T12:31:05.308Z,31.34
2023-04-09T12:32:07.026Z,30.92
2023-04-09T12:33:10.951Z,30.90
2023-04-09T12:34:13.334Z,29.93
2023-04-09T12:35:15.837Z,29.97
2023-04-09T12:36:17.784Z,30.87
2023-04-09T12:37:19.440Z,30.54
2023-04-09T12:38:21.421Z,30.07
2023-04-09T12:39:23.086Z,29.78
2023-04-09T12:40:24.698Z,29.98
2023-04-09T12:41:26.571Z,29.70
2023-04-09T12:42:28.120Z,30.08
2023-04-09T12:43:29.716Z,29.94
2023-04-09T12:44:33.136Z,30.82
2023-04-09T12:45:34.816Z,30.49
2023-04-09T12:46:37.232Z,30.00
2023-04-09T12:47:39.933Z,31.01
2023-04-09T12:48:41.461Z,30.69
2023-04-09T12:49:46.407Z,30.49
2023-04-09T12:50:48.245Z,31.27
2023-04-09T12:51:49.755Z,31.84
2023-04-09T12:52:51.553Z,31.80
2023-04-09T12:53:53.361Z,32.07
2023-04-09T12:54:55.569Z,31.53
2023-04-09T12:55:57.088Z,31.59
2023-04-09T12:56:58.628Z,31.69
2023-04-09T12:58:01.918Z,31.91
2023-04-09T12:59:03.950Z,31.29
2023-04-09T13:00:07.604Z,32.62
2023-04-09T13:01:09.409Z,32.89
2023-04-09T13:02:11.628Z,32.48
2023-04-09T13:03:16.586Z,32.60
2023-04-09T13:04:18.488Z,31.60
2023-04-09T13:05:20.287Z,32.19
2023-04-09T13:06:22.978Z,32.28
2023-04-09T13:07:25.841Z,31.72
2023-04-09T13:08:27.540Z,31.44
2023-04-09T13:09:29.033Z,31.54
2023-04-09T13:10:31.560Z,31.85
2023-04-09T13:11:33.058Z,32.29
2023-04-09T13:12:34.588Z,33.23
2023-04-09T13:13:36.114Z,34.20
2023-04-09T13:14:39.234Z,34.05
2023-04-09T13:15:45.303Z,33.66
2023-04-09T13:16:47.063Z,32.86
2023-04-09T13:17:48.697Z,33.10
2023-04-09T13:18:50.584Z,32.97
2023-04-09T13:19:52.730Z,33.04
2023-04-09T13:20:54.618Z,32.86
2023-04-09T13:21:56.124Z,33.09
2023-04-09T13:22:57.663Z,33.15
2023-04-09T13:23:59.180Z,32.84
2023-04-09T13:25:00.741Z,32.61
2023-04-09T13:26:02.636Z,32.41
2023-04-09T13:27:09.514Z,32.45
2023-04-09T13:28:11.059Z,31.94
2023-04-09T13:29:12.669Z,32.43
2023-04-09T13:30:14.639Z,31.65